Time;durP1;ratioP1;P1;durP2;ratioP2;P2;SDS_P1;SDS_P2;PMS_P1;PMS_P2;Temp;Humidity;BMP_temperature;BMP_pressure;BME280_temperature;BME280_humidity;BME280_pressure;Samples;Min_cycle;Max_cycle;Signal;HPM_P1;HPM_P2
2022/06/07 00:00:17;;;;;;;5.82;3.35;;;;;;;21.65;50.23;101377.88;5034613;28;20039;-69
2022/06/07 00:02:42;;;;;;;4.68;3.28;;;;;;;22.14;49.00;101374.56;5033646;28;20040;-69
2022/06/07 00:05:08;;;;;;;4.50;3.70;;;;;;;20.73;52.34;101380.28;5033837;28;20029;-69
2022/06/07 00:07:34;;;;;;;4.95;3.72;;;;;;;21.14;52.20;101377.56;5034440;28;20034;-70
2022/06/07 00:09:59;;;;;;;6.05;3.33;;;;;;;21.42;50.70;101370.94;5049934;28;20041;-69
2022/06/07 00:12:25;;;;;;;6.20;3.55;;;;;;;20.98;52.04;101366.75;5035582;28;20410;-69
2022/06/07 00:14:51;;;;;;;8.02;3.83;;;;;;;20.61;53.53;101372.81;5032862;28;20039;-69
2022/06/07 00:17:17;;;;;;;3.83;3.20;;;;;;;21.43;51.65;101367.38;5035542;28;20075;-69
2022/06/07 00:19:43;;;;;;;5.93;4.13;;;;;;;22.41;48.33;101367.97;5035534;28;20477;-69
2022/06/07 00:22:09;;;;;;;5.00;3.67;;;;;;;22.53;48.80;101375.31;5033471;28;20091;-69
2022/06/07 00:24:35;;;;;;;7.18;3.67;;;;;;;22.57;47.99;101366.22;5034624;28;20037;-69
2022/06/07 00:27:01;;;;;;;5.03;4.38;;;;;;;22.32;48.86;101366.59;5033253;28;20493;-69
2022/06/07 00:29:27;;;;;;;3.72;3.15;;;;;;;21.95;49.74;101368.47;5033394;28;20041;-69
2022/06/07 00:31:53;;;;;;;3.50;3.20;;;;;;;22.00;50.10;101361.13;5034254;28;20386;-70
2022/06/07 00:34:19;;;;;;;5.40;3.47;;;;;;;22.91;47.97;101358.25;5032299;28;20037;-69
2022/06/07 00:36:45;;;;;;;5.53;3.20;;;;;;;23.21;46.98;101356.63;5032488;28;20492;-69
2022/06/07 00:39:11;;;;;;;4.22;3.83;;;;;;;23.30;46.50;101362.38;5033738;28;20038;-70
2022/06/07 00:41:37;;;;;;;4.10;2.97;;;;;;;22.31;48.87;101354.22;5035081;28;20039;-69
2022/06/07 00:44:20;;;;;;;6.45;3.42;;;;;;;22.32;48.68;101355.97;5032653;28;20029;-69
2022/06/07 00:46:48;;;;;;;4.82;3.83;;;;;;;22.69;47.93;101351.41;5032163;28;20398;-70
2022/06/07 00:49:18;;;;;;;4.00;3.60;;;;;;;23.11;47.01;101355.38;5033636;28;20087;-69
2022/06/07 00:51:44;;;;;;;4.60;3.75;;;;;;;22.07;49.21;101359.00;5033056;28;20032;-69
2022/06/07 00:54:10;;;;;;;5.45;3.90;;;;;;;23.02;47.50;101347.88;5034126;28;20064;-69
2022/06/07 00:56:36;;;;;;;6.65;3.60;;;;;;;23.36;46.03;101348.72;5033106;28;20602;-70
2022/06/07 00:59:03;;;;;;;4.47;3.30;;;;;;;23.26;46.63;101335.06;5026197;28;20060;-70
2022/06/07 01:01:30;;;;;;;5.97;4.15;;;;;;;23.59;45.54;101339.44;5033682;28;20029;-70
2022/06/07 01:03:56;;;;;;;4.28;3.60;;;;;;;23.15;46.83;101342.75;5031952;28;20025;-70
2022/06/07 01:11:49;;;;;;;5.43;4.25;;;;;;;21.81;50.80;101343.38;5031262;28;20048;-69
2022/06/07 01:14:15;;;;;;;4.82;3.70;;;;;;;21.83;50.56;101337.97;5034202;28;20025;-69
2022/06/07 01:16:41;;;;;;;6.53;4.32;;;;;;;22.47;48.05;101339.22;5033713;28;20029;-70
2022/06/07 01:19:06;;;;;;;8.38;4.55;;;;;;;21.51;51.03;101338.59;5033726;28;20029;-69
2022/06/07 01:21:37;;;;;;;5.32;4.32;;;;;;;22.51;49.08;101343.44;5033224;28;20031;-69
2022/06/07 01:24:04;;;;;;;5.85;3.75;;;;;;;22.44;49.35;101338.53;5032608;28;20503;-69
2022/06/07 01:26:31;;;;;;;4.80;4.00;;;;;;;22.88;47.48;101328.16;5030835;28;20053;-69
2022/06/07 01:28:56;;;;;;;5.68;4.47;;;;;;;22.74;47.81;101324.50;5031884;28;20091;-69
2022/06/07 01:31:22;;;;;;;6.10;4.50;;;;;;;22.80;47.70;101317.03;5032281;28;20057;-69
2022/06/07 01:33:47;;;;;;;5.45;4.53;;;;;;;23.36;46.68;101327.38;5031987;28;20028;-69
2022/06/07 01:36:16;;;;;;;7.32;4.47;;;;;;;23.20;47.33;101322.91;5032487;28;20121;-69
2022/06/07 01:38:43;;;;;;;7.57;4.85;;;;;;;23.95;44.60;101326.75;5030790;28;20028;-69
2022/06/07 01:43:54;;;;;;;7.70;5.22;;;;;;;23.38;46.44;101314.81;5034757;28;20105;-69
2022/06/07 01:46:21;;;;;;;6.43;4.15;;;;;;;22.44;49.08;101317.22;5033085;28;20034;-69
2022/06/07 01:48:48;;;;;;;6.43;4.88;;;;;;;22.19;48.43;101307.81;5031773;28;20075;-69
2022/06/07 01:51:16;;;;;;;6.43;4.88;;;;;;;22.21;49.60;101308.56;5033884;28;20600;-69
2022/06/07 01:53:42;;;;;;;7.63;4.95;;;;;;;23.23;46.91;101305.84;5033128;28;20052;-69
2022/06/07 01:56:13;;;;;;;7.93;4.15;;;;;;;22.48;49.14;101308.97;5033161;28;20516;-69
2022/06/07 01:58:39;;;;;;;5.50;4.65;;;;;;;21.64;51.42;101306.13;5030089;28;20029;-68
2022/06/07 02:01:06;;;;;;;7.93;4.68;;;;;;;22.45;49.69;101297.63;5030150;28;20040;-69
2022/06/07 02:03:32;;;;;;;7.10;4.65;;;;;;;21.06;54.39;101302.63;5032232;28;20017;-69
2022/06/07 02:06:00;;;;;;;9.45;4.45;;;;;;;22.07;51.26;101288.00;5033556;28;20029;-69
2022/06/07 02:08:26;;;;;;;5.68;4.25;;;;;;;21.26;52.63;101295.50;5031356;28;20116;-69
2022/06/07 02:10:53;;;;;;;5.95;4.38;;;;;;;21.26;52.73;101291.03;5030919;28;20104;-69
2022/06/07 02:13:19;;;;;;;6.90;4.78;;;;;;;22.10;50.48;101286.97;5033238;28;20088;-69
2022/06/07 02:15:45;;;;;;;9.20;4.88;;;;;;;21.74;50.02;101286.09;5031425;28;20025;-69
2022/06/07 02:18:11;;;;;;;5.45;4.53;;;;;;;21.08;52.13;101291.94;5032600;28;20030;-69
2022/06/07 02:20:37;;;;;;;8.38;5.20;;;;;;;21.66;51.72;101288.28;5032125;28;20397;-69
2022/06/07 02:23:03;;;;;;;6.43;4.57;;;;;;;20.94;52.06;101287.25;5029891;28;20382;-69
2022/06/07 02:25:35;;;;;;;7.18;4.63;;;;;;;21.31;53.27;101289.03;5030946;28;20021;-69
2022/06/07 02:28:01;;;;;;;9.23;5.03;;;;;;;21.32;51.24;101287.22;5032625;28;20033;-69
2022/06/07 02:30:26;;;;;;;5.93;4.90;;;;;;;20.51;54.50;101287.38;5032026;28;20519;-69
2022/06/07 02:32:52;;;;;;;5.38;4.75;;;;;;;22.19;49.55;101286.53;5030029;28;20029;-69
2022/06/07 02:35:18;;;;;;;6.65;4.97;;;;;;;21.14;51.59;101292.50;5032253;28;20544;-69
2022/06/07 02:37:44;;;;;;;6.72;5.50;;;;;;;20.99;52.38;101282.56;5030326;28;20409;-69
2022/06/07 02:40:09;;;;;;;6.65;5.18;;;;;;;21.78;50.32;101282.34;5031918;28;20033;-69
2022/06/07 02:42:36;;;;;;;5.93;4.78;;;;;;;21.97;49.43;101281.44;5028206;28;20040;-69
2022/06/07 02:45:01;;;;;;;7.28;4.65;;;;;;;21.23;52.14;101288.53;5032138;28;20121;-69
2022/06/07 02:47:27;;;;;;;9.18;4.93;;;;;;;21.82;50.09;101283.91;5030231;28;20112;-69
2022/06/07 02:49:52;;;;;;;5.63;4.80;;;;;;;21.13;51.60;101285.47;5031884;28;20052;-70
2022/06/07 02:52:21;;;;;;;7.47;4.93;;;;;;;22.31;49.67;101282.34;5030564;28;20440;-69
2022/06/07 02:54:46;;;;;;;5.85;4.63;;;;;;;20.89;51.76;101289.25;5035775;28;20079;-69
2022/06/07 02:57:13;;;;;;;6.80;4.10;;;;;;;21.00;50.61;101285.16;5030523;28;20436;-69
2022/06/07 02:59:38;;;;;;;5.93;4.60;;;;;;;21.17;50.68;101281.72;5030171;28;20040;-69
2022/06/07 03:02:05;;;;;;;6.30;4.20;;;;;;;21.60;50.70;101280.63;5029509;28;20021;-69
2022/06/07 03:04:30;;;;;;;7.70;4.47;;;;;;;21.52;50.06;101280.94;5031771;28;20516;-69
2022/06/07 03:06:56;;;;;;;10.05;4.82;;;;;;;21.65;49.46;101284.78;5032461;28;20068;-69
2022/06/07 03:09:21;;;;;;;5.43;4.85;;;;;;;21.68;48.30;101287.28;5032567;28;20035;-69
2022/06/07 03:11:47;;;;;;;6.90;4.85;;;;;;;21.24;50.45;101282.28;5029088;28;20021;-69
2022/06/07 03:14:12;;;;;;;7.70;4.97;;;;;;;20.92;50.28;101273.16;5032451;28;20384;-69
2022/06/07 03:16:37;;;;;;;6.28;4.65;;;;;;;20.88;52.08;101276.91;5033265;28;20022;-69
2022/06/07 03:19:03;;;;;;;8.30;5.18;;;;;;;21.32;49.94;101273.94;5029995;28;20074;-69
2022/06/07 03:21:28;;;;;;;6.53;4.57;;;;;;;21.64;49.39;101279.53;5030046;28;20040;-69
2022/06/07 03:23:54;;;;;;;7.82;4.70;;;;;;;21.67;48.52;101282.03;5062490;28;20493;-69
2022/06/07 03:26:19;;;;;;;5.97;4.70;;;;;;;20.87;50.44;101288.47;5029996;28;20095;-69
2022/06/07 03:28:45;;;;;;;11.23;5.03;;;;;;;21.17;49.48;101281.72;5032149;28;20027;-69
2022/06/07 03:31:13;;;;;;;7.72;4.93;;;;;;;21.61;48.93;101280.53;5028975;28;20037;-69
2022/06/07 03:33:40;;;;;;;8.15;5.50;;;;;;;21.86;48.80;101282.81;5029083;28;20072;-69
2022/06/07 03:36:28;;;;;;;9.23;5.45;;;;;;;20.85;50.93;101280.56;5029863;28;20028;-69
2022/06/07 03:38:55;;;;;;;7.70;5.57;;;;;;;21.88;48.73;101284.56;5031329;28;20079;-69
2022/06/07 03:41:23;;;;;;;8.15;5.45;;;;;;;21.07;50.40;101288.41;5030692;28;20098;-69
2022/06/07 03:43:50;;;;;;;8.43;4.95;;;;;;;21.68;48.65;101286.44;5030833;28;20028;-70
2022/06/07 03:46:19;;;;;;;9.52;5.80;;;;;;;21.29;49.97;101292.69;5030021;28;20036;-69
2022/06/07 03:48:45;;;;;;;10.63;6.05;;;;;;;21.44;49.43;101288.44;5030816;28;20040;-69
2022/06/07 03:51:12;;;;;;;7.80;4.65;;;;;;;21.68;48.73;101297.91;5028718;28;20021;-70
2022/06/07 03:53:39;;;;;;;9.65;6.78;;;;;;;21.79;48.42;101294.72;5031133;28;20026;-69
2022/06/07 03:56:05;;;;;;;7.05;5.38;;;;;;;21.15;49.12;101296.88;5030455;28;20023;-69
2022/06/07 03:58:30;;;;;;;7.25;5.80;;;;;;;21.94;48.57;101287.78;5034664;28;20037;-70
2022/06/07 04:00:57;;;;;;;9.80;5.93;;;;;;;21.52;49.51;101295.13;5028338;28;20111;-69
2022/06/07 04:03:23;;;;;;;8.40;5.50;;;;;;;21.09;50.63;101297.16;5029924;28;20036;-70
2022/06/07 04:05:49;;;;;;;8.80;5.68;;;;;;;22.02;48.11;101292.69;5028614;28;20025;-70
2022/06/07 04:08:15;;;;;;;9.30;5.75;;;;;;;21.80;49.01;101293.78;5030337;28;20040;-70
2022/06/07 04:10:50;;;;;;;13.55;6.40;;;;;;;20.81;51.55;101300.22;5031461;28;20017;-69
2022/06/07 04:13:16;;;;;;;7.85;5.85;;;;;;;21.97;47.58;101297.41;5031378;28;20497;-70
2022/06/07 04:15:42;;;;;;;10.38;6.28;;;;;;;20.93;51.38;101299.66;5029124;28;20069;-69
2022/06/07 04:18:08;;;;;;;13.70;7.05;;;;;;;21.17;50.92;101304.75;5030727;28;20060;-69
2022/06/07 04:20:34;;;;;;;7.63;5.45;;;;;;;21.09;51.02;101305.16;5027601;28;20125;-70
2022/06/07 04:23:00;;;;;;;8.75;5.85;;;;;;;22.10;48.66;101309.13;5030985;28;20033;-69
2022/06/07 04:25:27;;;;;;;9.23;6.25;;;;;;;21.36;50.92;101310.06;5029585;28;20028;-69
2022/06/07 04:27:53;;;;;;;8.27;5.55;;;;;;;21.02;51.09;101307.22;5029676;28;20033;-70
2022/06/07 04:30:19;;;;;;;7.80;5.63;;;;;;;21.45;49.86;101303.47;5029780;28;20021;-69
2022/06/07 04:32:47;;;;;;;12.65;6.18;;;;;;;21.37;50.64;101317.13;5029089;28;20032;-69
2022/06/07 04:35:18;;;;;;;7.03;5.68;;;;;;;21.37;49.67;101306.47;5029581;28;20021;-70
2022/06/07 04:37:45;;;;;;;9.55;6.20;;;;;;;22.29;47.68;101313.53;5030901;28;20037;-70
2022/06/07 04:40:11;;;;;;;7.20;5.35;;;;;;;22.62;47.28;101304.72;5031552;28;20104;-69
2022/06/07 04:42:37;;;;;;;10.77;5.78;;;;;;;21.82;49.19;101318.50;5030839;28;20100;-70
2022/06/07 04:45:03;;;;;;;7.10;5.30;;;;;;;21.21;50.39;101314.31;5032729;28;20116;-70
2022/06/07 04:47:29;;;;;;;7.10;5.13;;;;;;;21.91;46.89;101324.31;5032583;28;20477;-70
2022/06/07 04:49:54;;;;;;;9.30;4.90;;;;;;;21.93;48.50;101317.97;5033969;28;20033;-70
2022/06/07 04:52:19;;;;;;;9.18;5.63;;;;;;;21.64;49.11;101319.44;5028860;28;20131;-69
2022/06/07 04:54:45;;;;;;;8.95;5.18;;;;;;;22.00;48.91;101307.88;5036814;28;20029;-70
2022/06/07 04:57:10;;;;;;;9.38;5.47;;;;;;;22.92;46.55;101322.69;5032786;28;20477;-70
2022/06/07 04:59:36;;;;;;;9.68;5.85;;;;;;;20.91;50.95;101324.56;5033931;28;20036;-69
2022/06/07 05:02:01;;;;;;;7.00;5.30;;;;;;;21.14;50.95;101329.72;5027127;28;20103;-69
2022/06/07 05:04:27;;;;;;;8.40;5.43;;;;;;;22.04;47.58;101320.09;5032864;28;20087;-70
2022/06/07 05:06:52;;;;;;;8.38;5.47;;;;;;;21.98;47.26;101325.72;5032871;28;20026;-69
2022/06/07 05:09:24;;;;;;;10.00;5.88;;;;;;;20.90;50.53;101330.84;5034193;28;20025;-70
2022/06/07 05:11:51;;;;;;;7.03;4.78;;;;;;;20.70;51.77;101323.78;5064090;28;20025;-69
2022/06/07 05:14:17;;;;;;;8.07;5.15;;;;;;;20.61;50.38;101322.38;5034001;28;20037;-70
2022/06/07 05:16:44;;;;;;;8.43;5.43;;;;;;;20.73;50.99;101324.50;5033264;28;20032;-69
2022/06/07 05:19:11;;;;;;;11.20;5.32;;;;;;;21.37;49.31;101335.72;5033847;28;20390;-70
2022/06/07 05:21:37;;;;;;;7.78;5.65;;;;;;;21.06;50.04;101338.97;5032316;28;20034;-70
2022/06/07 05:24:04;;;;;;;9.35;5.70;;;;;;;22.23;47.00;101330.69;5033660;28;20481;-70
2022/06/07 05:26:53;;;;;;;7.55;4.97;;;;;;;21.05;48.86;101342.53;5033585;28;20061;-70
2022/06/07 05:29:39;;;;;;;7.28;5.20;;;;;;;21.39;48.43;101336.53;5034609;28;20187;-70
2022/06/07 05:32:05;;;;;;;9.18;6.20;;;;;;;22.12;47.31;101333.88;5024933;28;20061;-70
2022/06/07 05:34:30;;;;;;;9.27;5.82;;;;;;;22.91;45.62;101332.47;5032219;28;20041;-70
2022/06/07 05:36:55;;;;;;;9.25;5.03;;;;;;;23.12;43.94;101335.81;5032165;28;20028;-69
2022/06/07 05:39:24;;;;;;;9.68;5.10;;;;;;;22.20;46.06;101336.13;5032476;28;20041;-70
2022/06/07 05:41:51;;;;;;;11.25;5.30;;;;;;;22.86;46.17;101335.38;5030397;28;20040;-70
2022/06/07 05:44:18;;;;;;;10.60;5.68;;;;;;;22.23;46.03;101337.78;5032646;28;20037;-70
2022/06/07 05:46:44;;;;;;;9.25;5.30;;;;;;;22.56;45.71;101337.88;5032013;28;20030;-69
2022/06/07 05:49:11;;;;;;;11.10;5.80;;;;;;;21.78;47.42;101334.72;5036052;28;20072;-70
2022/06/07 05:51:37;;;;;;;8.60;5.32;;;;;;;22.86;45.08;101335.38;5032059;28;20037;-70
2022/06/07 05:54:02;;;;;;;8.80;5.97;;;;;;;22.28;45.76;101333.09;5031763;28;20492;-70
2022/06/07 05:56:28;;;;;;;9.23;4.93;;;;;;;21.89;47.10;101336.84;5064960;28;20021;-70
2022/06/07 05:58:53;;;;;;;11.75;5.13;;;;;;;22.31;45.61;101336.47;5065703;28;20033;-69
2022/06/07 06:01:19;;;;;;;9.63;5.70;;;;;;;21.75;47.59;101335.72;5030824;28;20695;-70
2022/06/07 06:03:45;;;;;;;10.55;6.63;;;;;;;21.54;47.66;101342.91;5033576;28;20489;-69
2022/06/07 06:06:11;;;;;;;8.25;5.18;;;;;;;22.56;46.44;101339.66;5030146;28;20029;-70
2022/06/07 06:11:23;;;;;;;11.05;6.07;;;;;;;23.60;43.19;101342.94;5030617;28;20109;-70
2022/06/07 06:13:49;;;;;;;9.55;6.05;;;;;;;22.84;45.35;101334.59;5030750;28;20434;-70
2022/06/07 06:16:20;;;;;;;10.60;6.20;;;;;;;23.92;43.76;101341.13;5035278;28;20033;-70
2022/06/07 06:18:55;;;;;;;8.30;5.40;;;;;;;21.95;47.47;101341.84;5031918;28;20033;-69
2022/06/07 06:21:23;;;;;;;9.95;5.60;;;;;;;23.44;43.83;101341.16;5029791;28;20040;-70
2022/06/07 06:23:48;;;;;;;10.38;5.70;;;;;;;22.15;46.28;101340.84;5033342;28;20100;-70
2022/06/07 06:26:18;;;;;;;10.13;5.30;;;;;;;23.28;45.05;101342.97;5035076;28;20049;-69
2022/06/07 06:28:44;;;;;;;8.95;5.82;;;;;;;23.37;44.24;101345.97;5029427;28;20474;-69
2022/06/07 06:31:12;;;;;;;9.45;6.30;;;;;;;23.75;43.98;101355.41;5030779;28;20052;-69
2022/06/07 06:33:44;;;;;;;8.18;5.43;;;;;;;24.91;40.58;101335.22;5032923;28;20432;-69
2022/06/07 06:36:13;;;;;;;7.43;5.13;;;;;;;24.19;41.80;101349.34;5033433;28;20044;-69
2022/06/07 06:38:39;;;;;;;9.27;5.38;;;;;;;24.14;42.00;101356.75;5035249;28;20107;-69
2022/06/07 06:41:16;;;;;;;9.10;4.90;;;;;;;22.12;44.43;101355.19;5030328;28;20120;-69
2022/06/07 06:43:43;;;;;;;11.63;4.90;;;;;;;22.71;44.89;101354.88;5060690;28;20488;-70
2022/06/07 06:46:12;;;;;;;7.00;4.88;;;;;;;22.23;45.53;101351.09;5063952;28;20084;-69
2022/06/07 06:48:37;;;;;;;7.30;4.57;;;;;;;22.46;45.36;101358.81;5030996;28;20493;-69
2022/06/07 06:51:05;;;;;;;8.18;5.00;;;;;;;22.76;44.69;101352.78;5031111;28;20064;-69
2022/06/07 06:53:35;;;;;;;6.80;4.80;;;;;;;23.75;42.44;101355.41;5030517;28;20025;-69
2022/06/07 06:56:00;;;;;;;8.15;5.07;;;;;;;23.92;43.06;101356.28;5063883;28;20042;-70
2022/06/07 06:58:26;;;;;;;7.55;4.80;;;;;;;23.10;43.78;101356.31;5028982;28;20052;-69
2022/06/07 07:01:00;;;;;;;6.68;4.78;;;;;;;23.84;42.47;101360.22;5030169;28;20029;-70
2022/06/07 07:03:26;;;;;;;9.48;4.97;;;;;;;23.13;42.54;101355.31;5027005;28;20113;-70
2022/06/07 07:05:52;;;;;;;6.78;4.93;;;;;;;23.20;43.28;101354.91;5029623;28;20507;-71
2022/06/07 07:08:17;;;;;;;6.88;4.65;;;;;;;23.16;43.45;101361.38;5014760;28;20121;-71
2022/06/07 07:10:42;;;;;;;7.53;4.85;;;;;;;25.29;40.18;101349.78;5027277;28;20106;-70
2022/06/07 07:13:08;;;;;;;8.70;5.10;;;;;;;22.84;44.22;101361.25;5028151;28;20037;-70
2022/06/07 07:15:33;;;;;;;6.80;5.22;;;;;;;22.91;44.61;101352.94;5030664;28;20026;-70
2022/06/07 07:17:59;;;;;;;10.88;5.45;;;;;;;23.47;42.88;101356.13;5028128;28;20029;-70
2022/06/07 07:20:24;;;;;;;7.15;4.68;;;;;;;24.48;41.60;101353.84;5027538;28;20025;-70
2022/06/07 07:22:50;;;;;;;6.85;4.75;;;;;;;23.75;41.92;101359.88;5030869;28;20037;-69
2022/06/07 07:25:15;;;;;;;9.13;5.30;;;;;;;23.88;42.18;101361.78;5027462;28;22000;-70
2022/06/07 07:27:41;;;;;;;12.02;5.20;;;;;;;24.61;41.11;101356.66;5032727;28;20044;-70
2022/06/07 07:30:07;;;;;;;7.03;4.88;;;;;;;24.21;40.65;101366.09;5014202;28;20042;-70
2022/06/07 07:32:33;;;;;;;9.48;5.00;;;;;;;24.34;41.38;101362.72;5029000;28;20037;-71
2022/06/07 07:35:02;;;;;;;10.77;5.80;;;;;;;23.47;41.43;101364.97;5010648;28;20215;-71
2022/06/07 07:37:28;;;;;;;7.72;5.53;;;;;;;22.61;43.85;101372.25;5024232;28;20013;-69
2022/06/07 07:39:53;;;;;;;8.23;5.70;;;;;;;23.68;41.54;101370.06;5049581;28;20024;-70
2022/06/07 07:42:19;;;;;;;10.40;6.22;;;;;;;23.06;42.12;101368.09;5019683;28;20087;-69
2022/06/07 07:44:44;;;;;;;8.00;4.47;;;;;;;22.82;42.95;101371.13;5031866;28;20552;-69
2022/06/07 07:47:10;;;;;;;11.90;5.40;;;;;;;23.52;41.50;101362.03;5028418;28;20032;-69
2022/06/07 07:49:35;;;;;;;10.02;6.18;;;;;;;23.11;42.63;101371.38;5027638;28;20029;-70
2022/06/07 07:52:01;;;;;;;8.00;5.45;;;;;;;24.39;41.08;101361.47;5030387;28;20029;-70
2022/06/07 07:54:28;;;;;;;10.70;4.82;;;;;;;22.90;43.10;101364.53;5028010;28;20040;-70
2022/06/07 07:56:55;;;;;;;9.25;4.97;;;;;;;23.11;42.84;101374.03;5030538;28;20434;-69
2022/06/07 07:59:21;;;;;;;9.52;6.32;;;;;;;24.81;40.48;101361.66;5026663;28;20067;-70
2022/06/07 08:01:47;;;;;;;9.95;5.85;;;;;;;24.45;41.06;101365.59;5027662;28;20120;-71
2022/06/07 08:04:12;;;;;;;7.10;4.93;;;;;;;24.74;40.22;101368.31;5028735;28;20053;-70
2022/06/07 08:06:38;;;;;;;9.57;4.53;;;;;;;24.64;39.60;101367.19;5028854;28;20136;-69
2022/06/07 08:09:06;;;;;;;8.07;5.15;;;;;;;25.15;38.73;101364.88;5029729;28;20029;-70
2022/06/07 08:11:34;;;;;;;10.15;5.65;;;;;;;23.21;41.68;101383.28;5031246;28;20060;-69
2022/06/07 08:14:00;;;;;;;10.43;5.68;;;;;;;23.77;40.99;101380.22;5036826;28;20108;-69
2022/06/07 08:16:27;;;;;;;8.35;5.40;;;;;;;24.92;39.25;101368.16;5015374;28;20416;-70
2022/06/07 08:18:52;;;;;;;10.77;6.07;;;;;;;22.52;42.83;101377.13;5032918;28;20029;-69
2022/06/07 08:21:22;;;;;;;8.57;4.90;;;;;;;24.22;39.88;101373.19;5017816;28;20121;-70
2022/06/07 08:23:49;;;;;;;10.25;5.47;;;;;;;25.22;39.24;101362.69;5032710;28;20083;-70
2022/06/07 08:26:16;;;;;;;8.85;5.10;;;;;;;25.39;38.92;101369.69;5032395;28;20120;-71
2022/06/07 08:28:42;;;;;;;7.13;5.07;;;;;;;25.10;38.44;101367.00;5034074;28;20029;-70
2022/06/07 08:31:12;;;;;;;9.30;5.28;;;;;;;24.75;40.35;101367.38;5033378;28;20456;-70
2022/06/07 08:39:08;;;;;;;9.18;5.25;;;;;;;24.77;39.91;101370.84;5034200;28;20103;-70
2022/06/07 08:41:42;;;;;;;7.63;4.60;;;;;;;25.65;38.20;101372.47;5026611;28;20026;-71
2022/06/07 08:44:31;;;;;;;7.50;5.32;;;;;;;25.43;37.80;101360.50;5027738;28;20099;-70
2022/06/07 08:47:01;;;;;;;8.02;4.72;;;;;;;24.76;39.44;101369.09;5014537;28;20066;-70
2022/06/07 08:49:27;;;;;;;8.73;5.53;;;;;;;25.24;38.33;101375.00;5012862;28;20030;-70
2022/06/07 08:52:08;;;;;;;5.88;4.50;;;;;;;25.13;39.54;101372.16;5015065;28;20397;-69
2022/06/07 08:54:37;;;;;;;7.97;4.30;;;;;;;25.34;38.65;101379.81;5015039;28;20033;-70
2022/06/07 08:57:25;;;;;;;8.82;4.10;;;;;;;25.63;38.49;101369.03;5032292;28;20029;-70
2022/06/07 09:00:00;;;;;;;6.75;4.20;;;;;;;24.71;39.80;101377.38;5034645;28;20041;-71
2022/06/07 09:02:43;;;;;;;7.65;4.53;;;;;;;24.11;40.99;101378.31;5033621;28;20032;-71
2022/06/07 09:05:11;;;;;;;;;;;;;;;25.87;39.48;101375.47;5032490;28;20080;-71
2022/06/07 09:07:36;;;;;;;8.77;4.32;;;;;;;25.13;38.51;101372.16;5032762;28;19912;-73
2022/06/07 09:13:00;;;;;;;5.95;4.40;;;;;;;26.49;37.22;101371.34;5030727;28;20112;-71
2022/06/07 09:15:31;;;;;;;6.03;4.35;;;;;;;23.35;42.02;101389.66;5025944;28;20040;-69
2022/06/07 09:18:00;;;;;;;7.78;4.93;;;;;;;26.73;37.41;101366.09;5031028;28;20033;-71
2022/06/07 09:20:31;;;;;;;8.35;6.05;;;;;;;24.82;40.35;101370.53;5035755;28;20139;-70
2022/06/07 09:23:22;;;;;;;10.93;5.93;;;;;;;25.67;38.74;101366.06;5039239;28;20147;-70
2022/06/07 09:25:51;;;;;;;9.35;5.15;;;;;;;25.38;38.20;101365.28;5025425;28;20067;-69
2022/06/07 09:28:29;;;;;;;6.88;5.15;;;;;;;25.33;40.07;101362.03;5066316;28;20022;-71
2022/06/07 09:31:06;;;;;;;8.98;5.15;;;;;;;24.80;40.01;101365.28;5030356;28;20045;-69
2022/06/07 09:33:34;;;;;;;6.22;4.88;;;;;;;24.81;40.18;101369.69;5013778;28;20129;-71
2022/06/07 09:36:05;;;;;;;6.10;4.40;;;;;;;24.94;39.72;101366.25;5058898;28;20059;-71
2022/06/07 09:38:46;;;;;;;8.88;4.88;;;;;;;24.32;41.85;101369.97;5028857;28;20485;-71
2022/06/07 09:41:36;;;;;;;6.10;5.03;;;;;;;24.83;40.25;101365.09;5030920;28;20021;-70
2022/06/07 09:44:25;;;;;;;5.68;4.57;;;;;;;24.38;41.56;101374.94;5031808;28;20065;-71
2022/06/07 09:47:05;;;;;;;7.60;5.10;;;;;;;24.77;40.41;101370.84;5030420;28;20025;-70
2022/06/07 09:49:54;;;;;;;6.97;4.85;;;;;;;24.93;39.94;101375.22;5031727;28;20033;-71
2022/06/07 09:52:23;;;;;;;6.72;4.82;;;;;;;24.80;39.88;101380.44;5028818;28;20484;-70
2022/06/07 09:54:58;;;;;;;8.10;5.15;;;;;;;22.42;44.16;101389.22;5049151;28;20044;-69
2022/06/07 09:57:33;;;;;;;9.30;5.65;;;;;;;23.96;41.78;101379.16;5032409;28;20017;-69
2022/06/07 10:00:19;;;;;;;6.90;5.30;;;;;;;26.07;38.92;101367.94;5032981;28;20485;-70
2022/06/07 10:02:51;;;;;;;8.55;5.68;;;;;;;24.79;40.64;101379.59;5032997;28;20155;-70
2022/06/07 10:05:41;;;;;;;8.65;5.20;;;;;;;24.60;41.04;101376.31;5031418;28;20037;-71
2022/06/07 10:08:20;;;;;;;11.30;5.18;;;;;;;25.88;38.17;101379.84;5033030;28;20037;-70
2022/06/07 10:10:59;;;;;;;11.00;5.47;;;;;;;25.36;40.02;101375.22;5030673;28;20055;-71
2022/06/07 10:13:30;;;;;;;5.78;4.65;;;;;;;26.17;37.94;101373.53;5032669;28;20029;-71
2022/06/07 10:16:09;;;;;;;9.95;5.97;;;;;;;26.97;37.12;101372.53;5027886;28;20092;-71
2022/06/07 10:18:52;;;;;;;6.78;4.90;;;;;;;26.31;37.63;101375.25;5033678;28;20391;-71
2022/06/07 10:21:45;;;;;;;7.22;6.10;;;;;;;26.14;38.11;101374.59;5037128;28;20071;-71
2022/06/07 10:24:29;;;;;;;7.43;5.80;;;;;;;26.13;38.02;101372.91;5033573;28;20132;-70
2022/06/07 10:27:04;;;;;;;9.65;5.65;;;;;;;24.75;41.00;101375.41;5058020;28;20405;-71
2022/06/07 10:29:45;;;;;;;9.85;5.35;;;;;;;27.05;36.57;101370.16;5032282;28;20034;-71
2022/06/07 10:32:39;;;;;;;9.95;6.80;;;;;;;26.12;38.33;101376.53;5032697;28;20057;-71
2022/06/07 10:35:19;;;;;;;9.45;7.25;;;;;;;26.52;37.72;101368.44;5031186;28;20040;-71
2022/06/07 10:38:03;;;;;;;9.50;6.30;;;;;;;25.36;39.40;101372.53;5031691;28;20086;-71
2022/06/07 10:40:49;;;;;;;9.38;5.75;;;;;;;25.93;38.86;101374.19;5032331;28;20417;-71
2022/06/07 10:43:34;;;;;;;9.30;6.47;;;;;;;25.38;38.99;101375.97;5042966;28;20029;-71
2022/06/07 10:46:00;;;;;;;8.82;5.57;;;;;;;26.53;38.09;101364.81;5035453;28;20033;-71
2022/06/07 10:48:52;;;;;;;7.32;5.55;;;;;;;25.64;39.27;101376.97;5032621;28;20125;-71
2022/06/07 10:54:29;;;;;;;11.30;6.28;;;;;;;26.71;36.62;101369.88;5030805;28;20409;-71
2022/06/07 10:57:15;;;;;;;8.65;6.20;;;;;;;26.34;37.87;101380.44;5028152;28;20482;-71
2022/06/07 10:59:43;;;;;;;7.75;5.82;;;;;;;25.41;38.83;101375.78;5032474;28;20370;-71
2022/06/07 11:02:24;;;;;;;8.85;6.35;;;;;;;25.34;38.30;101380.66;5028045;28;20025;-71
2022/06/07 11:10:48;;;;;;;9.70;6.60;;;;;;;25.23;39.35;101381.31;5020544;28;20384;-72
2022/06/07 11:13:22;;;;;;;9.45;7.38;;;;;;;24.87;40.82;101385.34;5027120;28;20033;-71
2022/06/07 11:15:59;;;;;;;12.77;8.90;;;;;;;26.51;37.84;101380.13;5024443;28;20018;-71
2022/06/07 11:18:26;;;;;;;12.75;8.27;;;;;;;26.16;38.33;101386.06;5022896;28;20481;-72
2022/06/07 11:21:01;;;;;;;11.75;6.80;;;;;;;25.54;40.00;101381.19;5027731;28;20053;-71
2022/06/07 11:23:33;;;;;;;11.73;7.95;;;;;;;26.12;39.62;101378.31;5026188;28;20026;-71
2022/06/07 11:26:08;;;;;;;12.27;8.23;;;;;;;27.03;38.17;101377.47;5027546;28;20028;-71
2022/06/07 11:28:39;;;;;;;13.50;7.93;;;;;;;28.53;35.56;101374.50;4980262;28;20083;-71
2022/06/07 11:31:23;;;;;;;10.77;8.40;;;;;;;25.68;38.14;101385.66;5033987;28;20068;-70
2022/06/07 11:33:51;;;;;;;11.50;7.45;;;;;;;27.73;35.82;101376.03;5034061;28;20112;-71
2022/06/07 11:36:20;;;;;;;11.27;7.80;;;;;;;28.12;35.58;101374.00;5030118;28;20052;-71
2022/06/07 11:38:57;;;;;;;10.43;7.72;;;;;;;26.68;36.80;101376.28;5031177;28;20039;-71
2022/06/07 11:41:37;;;;;;;12.50;8.63;;;;;;;26.27;37.50;101384.47;5028503;28;20025;-70
2022/06/07 11:44:12;;;;;;;12.48;7.80;;;;;;;27.02;37.18;101370.38;5028919;28;20470;-71
2022/06/07 11:46:49;;;;;;;13.95;8.48;;;;;;;26.84;36.69;101378.75;5030262;28;20524;-71
2022/06/07 11:49:17;;;;;;;13.57;7.90;;;;;;;26.73;36.85;101367.94;5030232;28;20033;-71
2022/06/07 11:51:52;;;;;;;14.35;8.35;;;;;;;28.15;35.38;101365.75;5029081;28;20025;-70
2022/06/07 11:54:35;;;;;;;13.60;9.30;;;;;;;28.94;33.99;101352.41;5038574;28;20041;-70
2022/06/07 11:57:26;;;;;;;10.48;6.78;;;;;;;27.43;36.00;101371.94;5036132;28;20393;-71
2022/06/07 11:59:55;;;;;;;12.63;7.45;;;;;;;27.53;35.71;101367.63;5034330;28;20501;-71
2022/06/07 12:02:27;;;;;;;11.48;7.88;;;;;;;29.13;33.90;101356.34;5034550;28;20130;-71